sensor_id;sensor_type;location;lat;lon;timestamp;pressure;altitude;pressure_sealevel;temperature;humidity
59391;BME280;53405;57.012;40.984;2023-04-24T00:02:25;100045.47;;;11.79;44.89
59391;BME280;53405;57.012;40.984;2023-04-24T00:04:53;100049.75;;;11.80;45.30
59391;BME280;53405;57.012;40.984;2023-04-24T00:07:21;100052.09;;;11.89;44.13
59391;BME280;53405;57.012;40.984;2023-04-24T00:09:49;100040.56;;;11.90;44.61
59391;BME280;53405;57.012;40.984;2023-04-24T00:12:17;100054.03;;;11.96;44.16
59391;BME280;53405;57.012;40.984;2023-04-24T00:14:44;100047.97;;;11.95;44.11
59391;BME280;53405;57.012;40.984;2023-04-24T00:17:12;100050.66;;;11.87;44.53
59391;BME280;53405;57.012;40.984;2023-04-24T00:19:39;100054.75;;;11.74;44.63
59391;BME280;53405;57.012;40.984;2023-04-24T00:22:07;100046.84;;;11.74;44.19
59391;BME280;53405;57.012;40.984;2023-04-24T00:24:35;100043.50;;;11.66;44.24
59391;BME280;53405;57.012;40.984;2023-04-24T00:27:03;100016.34;;;11.35;46.38
59391;BME280;53405;57.012;40.984;2023-04-24T00:29:30;100042.41;;;11.45;46.68
59391;BME280;53405;57.012;40.984;2023-04-24T00:31:58;100049.16;;;11.48;46.17
59391;BME280;53405;57.012;40.984;2023-04-24T00:34:26;100052.69;;;11.55;45.04
59391;BME280;53405;57.012;40.984;2023-04-24T00:36:53;100010.41;;;11.33;44.81
59391;BME280;53405;57.012;40.984;2023-04-24T00:39:22;100045.94;;;11.52;44.93
59391;BME280;53405;57.012;40.984;2023-04-24T00:41:50;100028.31;;;11.38;44.81
59391;BME280;53405;57.012;40.984;2023-04-24T00:44:18;100055.88;;;11.50;44.91
59391;BME280;53405;57.012;40.984;2023-04-24T00:46:47;100049.03;;;11.41;45.13
59391;BME280;53405;57.012;40.984;2023-04-24T00:49:19;100045.97;;;11.37;45.30
59391;BME280;53405;57.012;40.984;2023-04-24T00:51:46;100046.03;;;11.44;45.27
59391;BME280;53405;57.012;40.984;2023-04-24T00:54:14;100048.06;;;11.42;45.54
59391;BME280;53405;57.012;40.984;2023-04-24T00:56:43;100041.41;;;11.31;45.31
59391;BME280;53405;57.012;40.984;2023-04-24T00:59:12;100039.59;;;11.32;45.19
59391;BME280;53405;57.012;40.984;2023-04-24T01:01:40;100041.78;;;11.28;45.43
59391;BME280;53405;57.012;40.984;2023-04-24T01:04:11;100045.03;;;11.30;45.48
59391;BME280;53405;57.012;40.984;2023-04-24T01:06:39;100046.06;;;11.29;45.49
59391;BME280;53405;57.012;40.984;2023-04-24T01:09:09;100044.16;;;11.23;46.25
59391;BME280;53405;57.012;40.984;2023-04-24T01:11:40;100046.78;;;11.23;45.46
59391;BME280;53405;57.012;40.984;2023-04-24T01:14:11;100036.78;;;11.18;45.84
59391;BME280;53405;57.012;40.984;2023-04-24T01:16:39;100048.50;;;11.16;45.88
59391;BME280;53405;57.012;40.984;2023-04-24T01:19:10;100039.94;;;11.14;45.72
59391;BME280;53405;57.012;40.984;2023-04-24T01:21:39;100047.13;;;11.20;45.92
59391;BME280;53405;57.012;40.984;2023-04-24T01:24:07;100046.34;;;11.19;46.56
59391;BME280;53405;57.012;40.984;2023-04-24T01:26:35;100028.47;;;11.07;45.90
59391;BME280;53405;57.012;40.984;2023-04-24T01:29:03;100039.13;;;11.13;46.60
59391;BME280;53405;57.012;40.984;2023-04-24T01:31:31;100032.31;;;11.04;48.19
59391;BME280;53405;57.012;40.984;2023-04-24T01:33:59;100035.41;;;11.08;47.33
59391;BME280;53405;57.012;40.984;2023-04-24T01:36:28;100036.09;;;10.87;48.15
59391;BME280;53405;57.012;40.984;2023-04-24T01:38:56;100036.09;;;10.87;47.86
59391;BME280;53405;57.012;40.984;2023-04-24T01:41:25;100041.22;;;10.65;48.61
59391;BME280;53405;57.012;40.984;2023-04-24T01:43:53;100046.50;;;10.80;47.81
59391;BME280;53405;57.012;40.984;2023-04-24T01:46:21;100038.38;;;10.90;47.89
59391;BME280;53405;57.012;40.984;2023-04-24T01:48:51;100044.81;;;11.02;47.07
59391;BME280;53405;57.012;40.984;2023-04-24T01:51:19;100046.47;;;10.88;47.92
59391;BME280;53405;57.012;40.984;2023-04-24T01:53:47;100045.88;;;10.78;48.80
59391;BME280;53405;57.012;40.984;2023-04-24T01:56:16;100035.13;;;10.41;49.09
59391;BME280;53405;57.012;40.984;2023-04-24T01:58:44;100030.69;;;10.42;49.44
59391;BME280;53405;57.012;40.984;2023-04-24T02:01:18;100047.91;;;10.21;50.89
59391;BME280;53405;57.012;40.984;2023-04-24T02:03:47;100054.81;;;10.22;50.24
59391;BME280;53405;57.012;40.984;2023-04-24T02:06:15;100053.59;;;10.02;50.73
59391;BME280;53405;57.012;40.984;2023-04-24T02:08:43;100053.56;;;10.10;50.97
59391;BME280;53405;57.012;40.984;2023-04-24T02:11:11;100017.34;;;10.20;50.58
59391;BME280;53405;57.012;40.984;2023-04-24T02:13:39;100017.06;;;10.38;49.91
59391;BME280;53405;57.012;40.984;2023-04-24T02:16:06;100054.66;;;10.70;48.55
59391;BME280;53405;57.012;40.984;2023-04-24T02:18:54;100057.22;;;10.78;48.63
59391;BME280;53405;57.012;40.984;2023-04-24T02:21:24;100058.16;;;10.85;48.31
59391;BME280;53405;57.012;40.984;2023-04-24T02:23:52;100058.25;;;10.77;49.33
59391;BME280;53405;57.012;40.984;2023-04-24T02:26:20;100058.94;;;10.94;48.47
59391;BME280;53405;57.012;40.984;2023-04-24T02:28:48;100060.50;;;10.80;48.26
59391;BME280;53405;57.012;40.984;2023-04-24T02:31:20;100065.19;;;10.93;47.67
59391;BME280;53405;57.012;40.984;2023-04-24T02:33:48;100060.44;;;10.89;47.79
59391;BME280;53405;57.012;40.984;2023-04-24T02:36:16;100067.59;;;10.80;48.18
59391;BME280;53405;57.012;40.984;2023-04-24T02:38:44;100067.97;;;10.77;48.60
59391;BME280;53405;57.012;40.984;2023-04-24T02:41:12;100060.97;;;10.84;48.14
59391;BME280;53405;57.012;40.984;2023-04-24T02:43:42;100072.38;;;10.99;47.81
59391;BME280;53405;57.012;40.984;2023-04-24T02:46:11;100075.47;;;10.80;47.94
59391;BME280;53405;57.012;40.984;2023-04-24T02:48:38;100075.03;;;10.76;48.65
59391;BME280;53405;57.012;40.984;2023-04-24T02:51:06;100071.50;;;10.84;48.04
59391;BME280;53405;57.012;40.984;2023-04-24T02:53:34;100076.69;;;10.77;48.64
59391;BME280;53405;57.012;40.984;2023-04-24T02:56:02;100071.63;;;10.91;47.64
59391;BME280;53405;57.012;40.984;2023-04-24T02:58:30;100079.50;;;10.91;47.90
59391;BME280;53405;57.012;40.984;2023-04-24T03:00:58;100077.09;;;11.04;47.77
59391;BME280;53405;57.012;40.984;2023-04-24T03:03:26;100085.00;;;11.04;47.72
59391;BME280;53405;57.012;40.984;2023-04-24T03:05:53;100077.38;;;11.09;47.23
59391;BME280;53405;57.012;40.984;2023-04-24T03:08:21;100088.69;;;11.18;46.89
59391;BME280;53405;57.012;40.984;2023-04-24T03:10:49;100087.56;;;11.12;46.76
59391;BME280;53405;57.012;40.984;2023-04-24T03:13:16;100089.56;;;11.10;46.62
59391;BME280;53405;57.012;40.984;2023-04-24T03:15:44;100080.63;;;10.96;46.83
59391;BME280;53405;57.012;40.984;2023-04-24T03:18:13;100091.63;;;11.00;47.33
59391;BME280;53405;57.012;40.984;2023-04-24T03:20:42;100091.16;;;10.96;47.08
59391;BME280;53405;57.012;40.984;2023-04-24T03:23:09;100092.38;;;11.09;47.62
59391;BME280;53405;57.012;40.984;2023-04-24T03:25:38;100087.06;;;10.94;46.88
59391;BME280;53405;57.012;40.984;2023-04-24T03:28:06;100095.47;;;10.97;47.56
59391;BME280;53405;57.012;40.984;2023-04-24T03:30:39;100098.91;;;10.98;46.91
59391;BME280;53405;57.012;40.984;2023-04-24T03:33:09;100099.50;;;10.85;47.06
59391;BME280;53405;57.012;40.984;2023-04-24T03:35:44;100102.34;;;10.98;47.49
59391;BME280;53405;57.012;40.984;2023-04-24T03:38:12;100097.53;;;11.02;47.95
59391;BME280;53405;57.012;40.984;2023-04-24T03:40:56;100110.16;;;11.07;46.75
59391;BME280;53405;57.012;40.984;2023-04-24T03:43:47;100097.91;;;10.99;47.02
59391;BME280;53405;57.012;40.984;2023-04-24T03:46:15;100113.13;;;11.12;46.76
59391;BME280;53405;57.012;40.984;2023-04-24T03:48:50;100109.63;;;11.11;47.73
59391;BME280;53405;57.012;40.984;2023-04-24T03:51:20;100111.38;;;11.19;47.02
59391;BME280;53405;57.012;40.984;2023-04-24T03:53:52;100111.78;;;11.31;46.73
59391;BME280;53405;57.012;40.984;2023-04-24T03:56:22;100122.50;;;11.29;46.43
59391;BME280;53405;57.012;40.984;2023-04-24T03:58:49;100114.41;;;11.31;46.67
59391;BME280;53405;57.012;40.984;2023-04-24T04:01:17;100121.78;;;11.35;47.16
59391;BME280;53405;57.012;40.984;2023-04-24T04:03:55;100122.25;;;11.54;46.56
59391;BME280;53405;57.012;40.984;2023-04-24T04:06:25;100124.06;;;11.53;46.89
59391;BME280;53405;57.012;40.984;2023-04-24T04:08:54;100121.09;;;11.71;46.62
59391;BME280;53405;57.012;40.984;2023-04-24T04:11:22;100108.09;;;11.70;46.55
59391;BME280;53405;57.012;40.984;2023-04-24T04:13:50;100116.00;;;11.85;46.51
59391;BME280;53405;57.012;40.984;2023-04-24T04:16:20;100126.47;;;12.08;45.76
59391;BME280;53405;57.012;40.984;2023-04-24T04:18:51;100112.06;;;12.10;44.93
59391;BME280;53405;57.012;40.984;2023-04-24T04:21:19;100130.28;;;12.20;45.87
59391;BME280;53405;57.012;40.984;2023-04-24T04:23:50;100124.84;;;12.43;44.96
59391;BME280;53405;57.012;40.984;2023-04-24T04:26:22;100130.94;;;12.44;44.58
59391;BME280;53405;57.012;40.984;2023-04-24T04:29:08;100125.66;;;12.44;44.33
59391;BME280;53405;57.012;40.984;2023-04-24T04:31:39;100117.69;;;12.59;44.89
59391;BME280;53405;57.012;40.984;2023-04-24T04:34:11;100129.00;;;12.74;43.93
59391;BME280;53405;57.012;40.984;2023-04-24T04:36:41;100128.13;;;12.89;43.61
59391;BME280;53405;57.012;40.984;2023-04-24T04:39:47;100128.81;;;12.97;44.34
59391;BME280;53405;57.012;40.984;2023-04-24T04:42:21;100130.72;;;13.32;43.47
59391;BME280;53405;57.012;40.984;2023-04-24T04:44:50;100134.25;;;13.39;43.64
59391;BME280;53405;57.012;40.984;2023-04-24T04:47:22;100135.19;;;13.53;43.18
59391;BME280;53405;57.012;40.984;2023-04-24T04:49:52;100132.94;;;13.57;42.69
59391;BME280;53405;57.012;40.984;2023-04-24T04:52:23;100142.94;;;13.61;42.30
59391;BME280;53405;57.012;40.984;2023-04-24T04:55:10;100138.22;;;13.50;42.26
59391;BME280;53405;57.012;40.984;2023-04-24T04:57:58;100140.06;;;13.56;44.12
59391;BME280;53405;57.012;40.984;2023-04-24T05:00:29;100148.91;;;13.70;42.75
59391;BME280;53405;57.012;40.984;2023-04-24T05:03:07;100129.41;;;13.78;42.25
59391;BME280;53405;57.012;40.984;2023-04-24T05:05:47;100141.09;;;13.97;42.29
59391;BME280;53405;57.012;40.984;2023-04-24T05:08:17;100151.69;;;13.97;42.13
59391;BME280;53405;57.012;40.984;2023-04-24T05:10:50;100128.69;;;13.97;42.13
59391;BME280;53405;57.012;40.984;2023-04-24T05:13:18;100127.66;;;13.98;41.98
59391;BME280;53405;57.012;40.984;2023-04-24T05:15:49;100149.56;;;14.20;41.65
59391;BME280;53405;57.012;40.984;2023-04-24T05:18:17;100147.91;;;14.68;40.76
59391;BME280;53405;57.012;40.984;2023-04-24T05:20:45;100151.59;;;14.73;40.68
59391;BME280;53405;57.012;40.984;2023-04-24T05:23:13;100167.09;;;14.76;40.34
59391;BME280;53405;57.012;40.984;2023-04-24T05:25:43;100161.78;;;14.83;39.98
59391;BME280;53405;57.012;40.984;2023-04-24T05:28:12;100147.31;;;14.86;39.66
59391;BME280;53405;57.012;40.984;2023-04-24T05:30:40;100147.53;;;15.24;39.31
59391;BME280;53405;57.012;40.984;2023-04-24T05:33:08;100153.66;;;15.11;39.11
59391;BME280;53405;57.012;40.984;2023-04-24T05:35:37;100154.47;;;15.25;38.34
59391;BME280;53405;57.012;40.984;2023-04-24T05:38:05;100157.72;;;15.34;38.79
59391;BME280;53405;57.012;40.984;2023-04-24T05:40:33;100149.38;;;15.50;39.09
59391;BME280;53405;57.012;40.984;2023-04-24T05:43:01;100119.34;;;15.43;37.93
59391;BME280;53405;57.012;40.984;2023-04-24T05:45:28;100156.69;;;15.75;37.33
59391;BME280;53405;57.012;40.984;2023-04-24T05:47:56;100155.25;;;15.79;38.08
59391;BME280;53405;57.012;40.984;2023-04-24T05:50:23;100127.31;;;15.77;36.93
59391;BME280;53405;57.012;40.984;2023-04-24T05:52:51;100145.34;;;16.06;36.69
59391;BME280;53405;57.012;40.984;2023-04-24T05:55:25;100119.25;;;15.97;36.36
59391;BME280;53405;57.012;40.984;2023-04-24T05:57:54;100154.84;;;16.34;36.27
59391;BME280;53405;57.012;40.984;2023-04-24T06:00:25;100148.47;;;16.42;35.57
59391;BME280;53405;57.012;40.984;2023-04-24T06:03:00;100160.88;;;16.55;35.11
59391;BME280;53405;57.012;40.984;2023-04-24T06:05:28;100162.25;;;16.64;34.85
59391;BME280;53405;57.012;40.984;2023-04-24T06:07:56;100155.50;;;16.68;34.21
59391;BME280;53405;57.012;40.984;2023-04-24T06:10:28;100157.53;;;16.73;34.63
59391;BME280;53405;57.012;40.984;2023-04-24T06:12:56;100127.22;;;16.74;34.14
59391;BME280;53405;57.012;40.984;2023-04-24T06:15:30;100158.41;;;16.98;33.22
59391;BME280;53405;57.012;40.984;2023-04-24T06:18:07;100121.38;;;16.97;33.52
59391;BME280;53405;57.012;40.984;2023-04-24T06:20:38;100149.16;;;17.26;32.52
59391;BME280;53405;57.012;40.984;2023-04-24T06:23:08;100149.84;;;17.40;33.21
59391;BME280;53405;57.012;40.984;2023-04-24T06:25:36;100146.94;;;17.67;32.59
59391;BME280;53405;57.012;40.984;2023-04-24T06:28:05;100146.28;;;17.72;31.83
59391;BME280;53405;57.012;40.984;2023-04-24T06:30:32;100143.97;;;17.75;31.71
59391;BME280;53405;57.012;40.984;2023-04-24T06:33:00;100152.59;;;18.14;30.21
59391;BME280;53405;57.012;40.984;2023-04-24T06:35:32;100155.50;;;17.94;30.97
59391;BME280;53405;57.012;40.984;2023-04-24T06:37:59;100145.41;;;18.15;30.24
59391;BME280;53405;57.012;40.984;2023-04-24T06:40:28;100143.56;;;18.15;30.98
59391;BME280;53405;57.012;40.984;2023-04-24T06:42:55;100149.25;;;18.00;31.07
59391;BME280;53405;57.012;40.984;2023-04-24T06:45:25;100147.09;;;18.28;31.50
59391;BME280;53405;57.012;40.984;2023-04-24T06:47:53;100151.56;;;18.15;30.38
59391;BME280;53405;57.012;40.984;2023-04-24T06:50:20;100152.34;;;18.34;30.14
59391;BME280;53405;57.012;40.984;2023-04-24T06:52:48;100150.19;;;18.43;29.52
59391;BME280;53405;57.012;40.984;2023-04-24T06:55:16;100150.84;;;18.38;29.62
59391;BME280;53405;57.012;40.984;2023-04-24T06:57:44;100150.75;;;18.45;29.39
59391;BME280;53405;57.012;40.984;2023-04-24T07:00:12;100149.53;;;18.59;29.56
59391;BME280;53405;57.012;40.984;2023-04-24T07:02:40;100149.09;;;18.63;29.01
59391;BME280;53405;57.012;40.984;2023-04-24T07:05:08;100140.81;;;18.52;29.17
59391;BME280;53405;57.012;40.984;2023-04-24T07:07:35;100162.41;;;18.63;29.45
59391;BME280;53405;57.012;40.984;2023-04-24T07:10:05;100159.25;;;18.54;28.70
59391;BME280;53405;57.012;40.984;2023-04-24T07:12:32;100153.50;;;18.69;28.35
59391;BME280;53405;57.012;40.984;2023-04-24T07:15:00;100162.91;;;18.71;28.06
59391;BME280;53405;57.012;40.984;2023-04-24T07:17:31;100161.88;;;18.72;28.63
59391;BME280;53405;57.012;40.984;2023-04-24T07:19:59;100146.59;;;18.80;28.52
59391;BME280;53405;57.012;40.984;2023-04-24T07:22:27;100165.69;;;19.07;28.41
59391;BME280;53405;57.012;40.984;2023-04-24T07:24:54;100165.00;;;19.47;27.60
59391;BME280;53405;57.012;40.984;2023-04-24T07:27:22;100163.63;;;19.32;27.39
59391;BME280;53405;57.012;40.984;2023-04-24T07:29:50;100170.56;;;19.22;27.33
59391;BME280;53405;57.012;40.984;2023-04-24T07:32:18;100159.88;;;19.22;28.11
59391;BME280;53405;57.012;40.984;2023-04-24T07:34:45;100159.78;;;19.40;27.09
59391;BME280;53405;57.012;40.984;2023-04-24T07:37:13;100162.59;;;19.34;27.14
59391;BME280;53405;57.012;40.984;2023-04-24T07:39:41;100155.16;;;19.36;27.10
59391;BME280;53405;57.012;40.984;2023-04-24T07:42:08;100165.94;;;19.41;27.23
59391;BME280;53405;57.012;40.984;2023-04-24T07:44:36;100141.69;;;19.42;27.86
59391;BME280;53405;57.012;40.984;2023-04-24T07:47:04;100144.34;;;19.54;27.28
59391;BME280;53405;57.012;40.984;2023-04-24T07:49:31;100150.59;;;19.95;27.52
59391;BME280;53405;57.012;40.984;2023-04-24T07:52:01;100152.72;;;19.70;26.62
59391;BME280;53405;57.012;40.984;2023-04-24T07:54:29;100131.72;;;19.61;26.55
59391;BME280;53405;57.012;40.984;2023-04-24T07:56:57;100163.63;;;19.56;26.40
59391;BME280;53405;57.012;40.984;2023-04-24T07:59:26;100153.53;;;19.46;26.44
59391;BME280;53405;57.012;40.984;2023-04-24T08:01:54;100145.84;;;19.50;27.53
59391;BME280;53405;57.012;40.984;2023-04-24T08:04:22;100147.72;;;19.85;26.02
59391;BME280;53405;57.012;40.984;2023-04-24T08:06:49;100151.63;;;19.94;26.41
59391;BME280;53405;57.012;40.984;2023-04-24T08:09:18;100143.19;;;20.26;26.08
59391;BME280;53405;57.012;40.984;2023-04-24T08:11:45;100115.94;;;20.58;26.42
59391;BME280;53405;57.012;40.984;2023-04-24T08:14:13;100137.50;;;20.97;25.32
59391;BME280;53405;57.012;40.984;2023-04-24T08:16:42;100137.72;;;21.12;25.24
59391;BME280;53405;57.012;40.984;2023-04-24T08:19:10;100152.63;;;21.42;24.90
59391;BME280;53405;57.012;40.984;2023-04-24T08:21:37;100132.16;;;21.70;24.27
59391;BME280;53405;57.012;40.984;2023-04-24T08:24:05;100142.94;;;21.97;25.26
59391;BME280;53405;57.012;40.984;2023-04-24T08:26:34;100136.84;;;22.29;24.14
59391;BME280;53405;57.012;40.984;2023-04-24T08:29:02;100124.22;;;22.25;23.71
59391;BME280;53405;57.012;40.984;2023-04-24T08:31:30;100128.03;;;22.56;23.83
59391;BME280;53405;57.012;40.984;2023-04-24T08:33:58;100136.72;;;22.96;23.27
59391;BME280;53405;57.012;40.984;2023-04-24T08:36:28;100112.06;;;22.71;23.28
59391;BME280;53405;57.012;40.984;2023-04-24T08:39:02;100122.28;;;22.42;22.99
59391;BME280;53405;57.012;40.984;2023-04-24T08:44:49;100130.34;;;21.37;24.08
59391;BME280;53405;57.012;40.984;2023-04-24T08:47:17;100100.28;;;21.52;24.12
59391;BME280;53405;57.012;40.984;2023-04-24T08:49:48;100109.47;;;22.00;23.77
59391;BME280;53405;57.012;40.984;2023-04-24T08:52:16;100109.69;;;22.43;24.24
59391;BME280;53405;57.012;40.984;2023-04-24T08:54:45;100105.22;;;23.23;22.33
59391;BME280;53405;57.012;40.984;2023-04-24T08:57:14;100109.16;;;23.53;22.42
59391;BME280;53405;57.012;40.984;2023-04-24T08:59:43;100097.69;;;23.68;21.79
59391;BME280;53405;57.012;40.984;2023-04-24T09:02:11;100105.59;;;23.37;22.95
59391;BME280;53405;57.012;40.984;2023-04-24T09:04:40;100091.09;;;23.38;23.46
59391;BME280;53405;57.012;40.984;2023-04-24T09:07:08;100097.53;;;23.90;21.50
59391;BME280;53405;57.012;40.984;2023-04-24T09:09:38;100082.03;;;24.33;20.95
59391;BME280;53405;57.012;40.984;2023-04-24T09:12:07;100067.22;;;24.21;21.76
59391;BME280;53405;57.012;40.984;2023-04-24T09:14:36;100085.53;;;24.49;21.44
59391;BME280;53405;57.012;40.984;2023-04-24T09:17:09;100087.72;;;24.78;20.98
59391;BME280;53405;57.012;40.984;2023-04-24T09:19:40;100063.16;;;24.18;21.54
59391;BME280;53405;57.012;40.984;2023-04-24T09:22:09;100081.47;;;24.21;21.44
59391;BME280;53405;57.012;40.984;2023-04-24T09:24:38;100065.91;;;24.59;21.92
59391;BME280;53405;57.012;40.984;2023-04-24T09:27:06;100078.22;;;25.22;20.49
59391;BME280;53405;57.012;40.984;2023-04-24T09:29:35;100083.63;;;25.22;21.09
59391;BME280;53405;57.012;40.984;2023-04-24T09:32:20;100078.25;;;25.92;20.04
59391;BME280;53405;57.012;40.984;2023-04-24T09:35:13;100084.19;;;25.29;18.91
59391;BME280;53405;57.012;40.984;2023-04-24T09:37:45;100079.09;;;24.50;20.07
59391;BME280;53405;57.012;40.984;2023-04-24T09:40:19;100075.00;;;24.27;20.25
59391;BME280;53405;57.012;40.984;2023-04-24T09:42:56;100071.00;;;24.35;20.96
59391;BME280;53405;57.012;40.984;2023-04-24T09:45:36;100052.19;;;24.61;19.97
59391;BME280;53405;57.012;40.984;2023-04-24T09:48:05;100070.44;;;24.48;19.85
59391;BME280;53405;57.012;40.984;2023-04-24T09:50:33;100054.84;;;24.45;20.81
59391;BME280;53405;57.012;40.984;2023-04-24T09:53:04;100062.69;;;24.67;19.94
59391;BME280;53405;57.012;40.984;2023-04-24T09:55:32;100055.59;;;25.18;21.13
59391;BME280;53405;57.012;40.984;2023-04-24T09:58:00;100072.53;;;25.44;20.63
59391;BME280;53405;57.012;40.984;2023-04-24T10:00:30;100066.09;;;25.19;19.04
59391;BME280;53405;57.012;40.984;2023-04-24T10:03:03;100057.03;;;24.59;20.54
59391;BME280;53405;57.012;40.984;2023-04-24T10:05:33;100059.44;;;24.96;19.53
59391;BME280;53405;57.012;40.984;2023-04-24T10:08:08;100045.69;;;24.98;19.83
59391;BME280;53405;57.012;40.984;2023-04-24T10:10:41;100046.28;;;25.65;20.35
59391;BME280;53405;57.012;40.984;2023-04-24T10:13:11;100032.69;;;25.91;18.99
59391;BME280;53405;57.012;40.984;2023-04-24T10:15:40;100047.16;;;26.45;18.81
59391;BME280;53405;57.012;40.984;2023-04-24T10:18:09;100058.84;;;26.35;18.04
59391;BME280;53405;57.012;40.984;2023-04-24T10:20:37;100055.69;;;26.23;19.64
59391;BME280;53405;57.012;40.984;2023-04-24T10:23:05;100052.78;;;26.19;17.87
59391;BME280;53405;57.012;40.984;2023-04-24T10:25:35;100026.31;;;26.21;18.96
59391;BME280;53405;57.012;40.984;2023-04-24T10:28:03;100044.81;;;26.38;17.69
59391;BME280;53405;57.012;40.984;2023-04-24T10:30:33;100021.28;;;26.04;18.73
59391;BME280;53405;57.012;40.984;2023-04-24T10:33:06;100037.97;;;26.11;18.07
59391;BME280;53405;57.012;40.984;2023-04-24T10:35:39;100055.47;;;26.19;18.34
59391;BME280;53405;57.012;40.984;2023-04-24T10:38:13;100025.00;;;25.69;18.41
59391;BME280;53405;57.012;40.984;2023-04-24T10:40:42;100038.47;;;25.69;18.68
59391;BME280;53405;57.012;40.984;2023-04-24T10:43:16;100036.19;;;25.26;18.80
59391;BME280;53405;57.012;40.984;2023-04-24T10:46:04;100032.63;;;25.46;18.81
59391;BME280;53405;57.012;40.984;2023-04-24T10:48:33;100030.19;;;25.55;19.21
59391;BME280;53405;57.012;40.984;2023-04-24T10:51:02;100031.66;;;25.82;18.96
59391;BME280;53405;57.012;40.984;2023-04-24T10:53:30;100036.31;;;26.15;18.15
59391;BME280;53405;57.012;40.984;2023-04-24T10:56:08;100031.53;;;26.07;18.35
59391;BME280;53405;57.012;40.984;2023-04-24T10:58:44;100029.84;;;26.51;18.24
59391;BME280;53405;57.012;40.984;2023-04-24T11:01:32;100005.84;;;26.15;18.21
59391;BME280;53405;57.012;40.984;2023-04-24T11:04:02;100036.16;;;26.36;18.03
59391;BME280;53405;57.012;40.984;2023-04-24T11:06:35;100024.50;;;25.56;18.55
59391;BME280;53405;57.012;40.984;2023-04-24T11:09:09;100029.00;;;24.91;19.42
59391;BME280;53405;57.012;40.984;2023-04-24T11:11:46;100016.38;;;25.61;18.86
59391;BME280;53405;57.012;40.984;2023-04-24T11:14:15;100004.66;;;25.87;19.16
59391;BME280;53405;57.012;40.984;2023-04-24T11:16:54;100014.03;;;26.00;18.54
59391;BME280;53405;57.012;40.984;2023-04-24T11:19:26;99993.84;;;26.31;18.49
59391;BME280;53405;57.012;40.984;2023-04-24T11:22:01;100006.59;;;26.84;18.16
59391;BME280;53405;57.012;40.984;2023-04-24T11:27:21;99981.94;;;26.91;17.88
59391;BME280;53405;57.012;40.984;2023-04-24T11:30:00;100001.16;;;27.57;17.08
59391;BME280;53405;57.012;40.984;2023-04-24T11:32:34;100001.31;;;27.22;18.05
59391;BME280;53405;57.012;40.984;2023-04-24T11:35:22;100002.84;;;26.51;18.43
59391;BME280;53405;57.012;40.984;2023-04-24T11:37:55;99984.84;;;26.71;19.31
59391;BME280;53405;57.012;40.984;2023-04-24T11:40:25;100001.03;;;27.67;17.31
59391;BME280;53405;57.012;40.984;2023-04-24T11:42:53;99992.06;;;27.04;17.55
59391;BME280;53405;57.012;40.984;2023-04-24T11:45:26;99988.22;;;27.54;17.12
59391;BME280;53405;57.012;40.984;2023-04-24T11:47:56;99964.97;;;27.53;17.29
59391;BME280;53405;57.012;40.984;2023-04-24T11:50:26;99980.94;;;26.23;18.09
59391;BME280;53405;57.012;40.984;2023-04-24T11:52:55;99991.44;;;26.25;18.32
59391;BME280;53405;57.012;40.984;2023-04-24T11:55:25;99988.00;;;26.48;17.86
59391;BME280;53405;57.012;40.984;2023-04-24T11:57:56;99973.91;;;26.86;17.81
59391;BME280;53405;57.012;40.984;2023-04-24T12:00:28;99958.94;;;27.61;17.49
59391;BME280;53405;57.012;40.984;2023-04-24T12:05:38;99960.03;;;27.60;16.32
59391;BME280;53405;57.012;40.984;2023-04-24T12:08:27;99953.97;;;26.53;17.41
59391;BME280;53405;57.012;40.984;2023-04-24T12:10:56;99949.75;;;26.41;17.39
59391;BME280;53405;57.012;40.984;2023-04-24T12:13:25;99955.56;;;26.83;17.64
59391;BME280;53405;57.012;40.984;2023-04-24T12:15:54;99959.94;;;27.46;16.47
59391;BME280;53405;57.012;40.984;2023-04-24T12:18:23;99959.50;;;27.15;16.49
59391;BME280;53405;57.012;40.984;2023-04-24T12:20:51;99955.41;;;26.98;17.56
59391;BME280;53405;57.012;40.984;2023-04-24T12:23:35;99962.50;;;27.13;16.66
59391;BME280;53405;57.012;40.984;2023-04-24T12:26:03;99956.66;;;27.06;16.48
59391;BME280;53405;57.012;40.984;2023-04-24T12:28:35;99962.53;;;26.65;18.20
59391;BME280;53405;57.012;40.984;2023-04-24T12:31:03;99958.03;;;26.79;17.09
59391;BME280;53405;57.012;40.984;2023-04-24T12:33:35;99949.75;;;26.41;17.51
59391;BME280;53405;57.012;40.984;2023-04-24T12:36:03;99955.19;;;26.36;17.83
59391;BME280;53405;57.012;40.984;2023-04-24T12:38:32;99946.13;;;26.27;17.83
59391;BME280;53405;57.012;40.984;2023-04-24T12:41:09;99943.78;;;26.98;17.03
59391;BME280;53405;57.012;40.984;2023-04-24T12:43:37;99944.72;;;26.59;18.48
59391;BME280;53405;57.012;40.984;2023-04-24T12:46:05;99934.44;;;26.61;17.51
59391;BME280;53405;57.012;40.984;2023-04-24T12:48:33;99927.56;;;26.74;17.74
59391;BME280;53405;57.012;40.984;2023-04-24T12:51:00;99935.91;;;26.24;18.96
59391;BME280;53405;57.012;40.984;2023-04-24T12:53:29;99928.00;;;25.93;18.59
59391;BME280;53405;57.012;40.984;2023-04-24T12:55:58;99936.06;;;25.58;18.33
59391;BME280;53405;57.012;40.984;2023-04-24T12:58:26;99930.13;;;25.01;19.83
59391;BME280;53405;57.012;40.984;2023-04-24T13:00:54;99923.88;;;25.11;18.66
59391;BME280;53405;57.012;40.984;2023-04-24T13:03:21;99894.09;;;24.87;18.76
59391;BME280;53405;57.012;40.984;2023-04-24T13:05:49;99920.28;;;24.61;19.17